Time;durP1;ratioP1;P1;durP2;ratioP2;P2;SDS_P1;SDS_P2;PMS_P1;PMS_P2;Temp;Humidity;BMP_temperature;BMP_pressure;BME280_temperature;BME280_humidity;BME280_pressure;Samples;Min_cycle;Max_cycle;Signal;HPM_P1;HPM_P2
2022/04/21 00:00:23;;;;;;;8.70;7.10;;;;;;100042.65;;;;107200;1277;64748;-20
2022/04/21 00:03:05;;;;;;;9.00;7.30;;;;;;100043.45;;;;107048;1274;66415;-20
2022/04/21 00:05:36;;;;;;;8.50;6.90;;;;;;100045.85;;;;107144;1274;64868;-29
2022/04/21 00:08:07;;;;;;;8.20;6.80;;;;;;100048.49;;;;107057;1276;66060;-29
2022/04/21 00:10:34;;;;;;;8.20;6.90;;;;;;100047.52;;;;107122;1275;64779;-29
2022/04/21 00:13:02;;;;;;;8.40;6.70;;;;;;100043.73;;;;107063;1275;64886;-29
2022/04/21 00:15:32;;;;;;;8.30;6.70;;;;;;100045.93;;;;107039;1276;64493;-21
2022/04/21 00:18:02;;;;;;;8.80;7.00;;;;;;100045.27;;;;107122;1274;64841;-20
2022/04/21 00:20:29;;;;;;;7.50;6.60;;;;;;100046.73;;;;107126;1275;64846;-21
2022/04/21 00:25:46;;;;;;;7.80;6.20;;;;;;100042.81;;;;107145;1274;64856;-21
2022/04/21 00:28:16;;;;;;;8.70;6.90;;;;;;100041.77;;;;107139;1274;66173;-25
2022/04/21 00:30:43;;;;;;;8.00;6.40;;;;;;100043.95;;;;107132;1275;64877;-29
2022/04/21 00:33:14;;;;;;;7.70;6.10;;;;;;100042.69;;;;107085;1276;64873;-28
2022/04/21 00:35:41;;;;;;;7.80;6.40;;;;;;100040.73;;;;107114;1274;64760;-21
2022/04/21 00:38:11;;;;;;;7.80;6.10;;;;;;100042.20;;;;107139;1275;64741;-21
2022/04/21 00:40:39;;;;;;;8.20;6.00;;;;;;100039.90;;;;107184;1274;64937;-21
2022/04/21 00:43:09;;;;;;;7.80;6.30;;;;;;100036.09;;;;107111;1274;64751;-21
2022/04/21 00:45:36;;;;;;;7.50;6.40;;;;;;100034.57;;;;107155;1274;66360;-22
2022/04/21 00:48:07;;;;;;;8.10;6.50;;;;;;100032.36;;;;107111;1275;65999;-20
2022/04/21 00:50:38;;;;;;;8.60;6.50;;;;;;100030.92;;;;107146;1274;64958;-29
2022/04/21 00:53:07;;;;;;;8.50;6.70;;;;;;100027.92;;;;107099;1276;67260;-28
2022/04/21 00:55:39;;;;;;;8.10;6.30;;;;;;100033.79;;;;107160;1277;64793;-21
2022/04/21 00:58:09;;;;;;;7.80;6.50;;;;;;100031.62;;;;107164;1275;64881;-20
2022/04/21 01:00:39;;;;;;;9.50;6.80;;;;;;100031.88;;;;107107;1274;64946;-20
2022/04/21 01:03:07;;;;;;;8.00;6.20;;;;;;100030.55;;;;107122;1277;64752;-21
2022/04/21 01:05:34;;;;;;;9.50;6.40;;;;;;100031.17;;;;107181;1274;65909;-29
2022/04/21 01:08:07;;;;;;;7.70;6.10;;;;;;100031.33;;;;107119;1277;64786;-29
2022/04/21 01:10:39;;;;;;;6.70;5.50;;;;;;100032.89;;;;107193;1274;64921;-20
2022/04/21 01:13:09;;;;;;;8.10;6.00;;;;;;100031.15;;;;107140;1275;64725;-20
2022/04/21 01:15:38;;;;;;;7.20;5.80;;;;;;100030.91;;;;107157;1277;64651;-29
2022/04/21 01:18:09;;;;;;;7.10;6.00;;;;;;100032.38;;;;107141;1277;66487;-29
2022/04/21 01:20:39;;;;;;;8.00;6.50;;;;;;100034.33;;;;107128;1274;64772;-20
2022/04/21 01:23:10;;;;;;;7.30;5.80;;;;;;100038.52;;;;107094;1274;64747;-21
2022/04/21 01:25:39;;;;;;;7.60;5.80;;;;;;100037.78;;;;107151;1277;64857;-29
2022/04/21 01:28:10;;;;;;;7.80;5.80;;;;;;100036.25;;;;107185;1274;64759;-35
2022/04/21 01:30:38;;;;;;;7.50;5.90;;;;;;100035.05;;;;107158;1275;66431;-21
2022/04/21 01:33:09;;;;;;;7.60;5.60;;;;;;100034.47;;;;107195;1275;64764;-25
2022/04/21 01:35:38;;;;;;;8.40;5.80;;;;;;100029.23;;;;107161;1277;64727;-21
2022/04/21 01:41:10;;;;;;;7.40;5.70;;;;;;100021.94;;;;107079;1276;64889;-30
2022/04/21 01:43:43;;;;;;;8.60;6.90;;;;;;100017.23;;;;107132;1275;67527;-29
2022/04/21 01:46:11;;;;;;;8.40;6.00;;;;;;100011.91;;;;107141;1274;64734;-30
2022/04/21 01:48:42;;;;;;;7.60;5.90;;;;;;100009.50;;;;107130;1274;64614;-21
2022/04/21 01:51:12;;;;;;;8.30;6.30;;;;;;100007.33;;;;107066;1277;64870;-21
2022/04/21 01:53:42;;;;;;;8.20;5.90;;;;;;100007.23;;;;107145;1274;64763;-28
2022/04/21 01:56:09;;;;;;;7.10;5.80;;;;;;100007.11;;;;107129;1275;64981;-21
2022/04/21 01:58:40;;;;;;;6.90;5.80;;;;;;100005.81;;;;107149;1275;64753;-29
2022/04/21 02:01:08;;;;;;;8.00;5.70;;;;;;100008.86;;;;106988;1280;64730;-30
2022/04/21 02:03:35;;;;;;;7.20;5.70;;;;;;100008.90;;;;107125;1277;65208;-28
2022/04/21 02:06:02;;;;;;;6.70;5.20;;;;;;100004.55;;;;107154;1275;64729;-29
2022/04/21 02:08:31;;;;;;;7.50;5.80;;;;;;100002.77;;;;107146;1275;64916;-21
2022/04/21 02:11:01;;;;;;;7.30;5.70;;;;;;100004.66;;;;107123;1275;64769;-21
2022/04/21 02:13:28;;;;;;;8.30;5.70;;;;;;99999.73;;;;107140;1275;64748;-21
2022/04/21 02:15:59;;;;;;;7.50;5.80;;;;;;99997.83;;;;107129;1277;65385;-21
2022/04/21 02:18:29;;;;;;;7.50;5.90;;;;;;99995.41;;;;107148;1275;64847;-22
2022/04/21 02:20:57;;;;;;;7.40;5.70;;;;;;99993.98;;;;106955;1277;65211;-21
2022/04/21 02:23:27;;;;;;;7.40;5.50;;;;;;99989.91;;;;107092;1277;64762;-28
2022/04/21 02:25:54;;;;;;;8.20;6.00;;;;;;99988.81;;;;107089;1277;64724;-30
2022/04/21 02:28:22;;;;;;;7.00;5.90;;;;;;99986.73;;;;107139;1274;64910;-21
2022/04/21 02:30:52;;;;;;;7.70;5.50;;;;;;99985.52;;;;107177;1274;64768;-23
2022/04/21 02:33:20;;;;;;;7.00;5.50;;;;;;99975.55;;;;107151;1274;64887;-21
2022/04/21 02:35:47;;;;;;;6.70;5.50;;;;;;99975.42;;;;107134;1277;64775;-22
2022/04/21 02:38:15;;;;;;;6.90;5.30;;;;;;99975.36;;;;107130;1275;65164;-26
2022/04/21 02:40:43;;;;;;;8.30;5.40;;;;;;99974.59;;;;107117;1275;64721;-21
2022/04/21 02:43:14;;;;;;;6.40;5.60;;;;;;99974.83;;;;107166;1274;64987;-21
2022/04/21 02:45:45;;;;;;;6.80;5.30;;;;;;99974.34;;;;107136;1277;66009;-29
2022/04/21 02:48:16;;;;;;;6.30;4.80;;;;;;99972.92;;;;107137;1274;64875;-27
2022/04/21 02:50:44;;;;;;;7.50;5.20;;;;;;99973.47;;;;107143;1275;64782;-29
2022/04/21 02:53:14;;;;;;;7.30;5.10;;;;;;99972.17;;;;106960;1277;64910;-30
2022/04/21 02:58:27;;;;;;;6.70;5.50;;;;;;99972.81;;;;107170;1274;68678;-21
2022/04/21 03:00:57;;;;;;;7.10;5.30;;;;;;99972.95;;;;107145;1277;64705;-21
2022/04/21 03:03:24;;;;;;;6.50;5.20;;;;;;99969.70;;;;107020;1275;64965;-22
2022/04/21 03:05:55;;;;;;;6.70;4.90;;;;;;99970.12;;;;107124;1275;64984;-21
2022/04/21 03:08:22;;;;;;;7.20;5.30;;;;;;99970.23;;;;107178;1277;65432;-29
2022/04/21 03:10:49;;;;;;;7.30;5.10;;;;;;99970.70;;;;107136;1274;66462;-29
2022/04/21 03:13:17;;;;;;;8.10;4.90;;;;;;99970.84;;;;107142;1274;64891;-22
2022/04/21 03:15:44;;;;;;;6.30;5.00;;;;;;99976.67;;;;107126;1274;64909;-28
2022/04/21 03:18:11;;;;;;;6.60;4.80;;;;;;99973.45;;;;107143;1274;64739;-21
2022/04/21 03:26:17;;;;;;;6.70;5.00;;;;;;99980.29;;;;107108;1275;64880;-21
2022/04/21 03:28:47;;;;;;;5.70;4.10;;;;;;99980.38;;;;107123;1277;64773;-21
2022/04/21 03:31:14;;;;;;;6.20;4.70;;;;;;99981.73;;;;107123;1277;64847;-21
2022/04/21 03:33:46;;;;;;;5.80;4.50;;;;;;99983.02;;;;107199;1277;64751;-30
2022/04/21 03:36:17;;;;;;;6.80;4.30;;;;;;99979.14;;;;107139;1274;66126;-29
2022/04/21 03:38:44;;;;;;;6.70;4.50;;;;;;99984.31;;;;107182;1277;64904;-30
2022/04/21 03:41:12;;;;;;;7.10;5.00;;;;;;99984.13;;;;107138;1275;64644;-36
2022/04/21 03:43:42;;;;;;;6.60;4.80;;;;;;99978.98;;;;107165;1275;64844;-22
2022/04/21 03:46:09;;;;;;;6.80;4.40;;;;;;99978.86;;;;107130;1274;64887;-23
2022/04/21 03:48:36;;;;;;;6.50;4.50;;;;;;99977.79;;;;107134;1274;66131;-29
2022/04/21 03:51:03;;;;;;;7.20;4.50;;;;;;99976.46;;;;107139;1275;64869;-29
2022/04/21 03:53:31;;;;;;;5.90;4.00;;;;;;99979.56;;;;107130;1275;64827;-28
2022/04/21 03:55:58;;;;;;;6.40;4.30;;;;;;99980.61;;;;107107;1275;64783;-30
2022/04/21 03:58:25;;;;;;;5.90;4.30;;;;;;99976.36;;;;107182;1274;64601;-22
2022/04/21 04:00:55;;;;;;;6.30;4.20;;;;;;99976.86;;;;107118;1278;65380;-22
2022/04/21 04:03:25;;;;;;;5.60;4.10;;;;;;99978.48;;;;107073;1275;64904;-30
2022/04/21 04:05:55;;;;;;;6.20;4.10;;;;;;99979.05;;;;107124;1274;64841;-37
2022/04/21 04:11:10;;;;;;;6.20;4.10;;;;;;99980.75;;;;107110;1277;64888;-31
2022/04/21 04:13:37;;;;;;;5.10;3.70;;;;;;99980.98;;;;107155;1275;65931;-23
2022/04/21 04:16:09;;;;;;;5.40;3.80;;;;;;99980.02;;;;106915;1274;291024;-21
2022/04/21 04:18:39;;;;;;;5.90;3.90;;;;;;99980.80;;;;107128;1274;64987;-22
2022/04/21 04:21:12;;;;;;;5.90;4.00;;;;;;99980.65;;;;107136;1275;64875;-21
2022/04/21 04:23:39;;;;;;;6.30;4.40;;;;;;99980.18;;;;107102;1274;64891;-28
2022/04/21 04:26:06;;;;;;;5.50;3.90;;;;;;99980.81;;;;107148;1274;64886;-29
2022/04/21 04:28:34;;;;;;;5.90;3.70;;;;;;99981.64;;;;107165;1274;64980;-28
2022/04/21 04:31:04;;;;;;;5.80;4.00;;;;;;99988.86;;;;107145;1275;64844;-30
2022/04/21 04:33:33;;;;;;;5.60;3.50;;;;;;99991.39;;;;107148;1275;64895;-21
2022/04/21 04:36:03;;;;;;;6.00;4.00;;;;;;100002.29;;;;107165;1274;64859;-22
2022/04/21 04:38:31;;;;;;;5.90;3.90;;;;;;100003.02;;;;107138;1277;66108;-21
2022/04/21 04:42:16;;;;;;;6.50;3.90;;;;;;100002.56;;;;107128;1274;64913;-21
2022/04/21 04:43:45;;;;;;;5.80;4.00;;;;;;100006.83;;;;107149;1274;64863;-21
2022/04/21 04:49:09;;;;;;;5.70;3.60;;;;;;100010.81;;;;107117;1277;64771;-21
2022/04/21 04:51:41;;;;;;;6.40;4.00;;;;;;100009.00;;;;107168;1275;65880;-21
2022/04/21 04:54:14;;;;;;;6.30;4.10;;;;;;100009.53;;;;107131;1277;64875;-22
2022/04/21 04:56:46;;;;;;;5.70;4.20;;;;;;100009.21;;;;107141;1275;64889;-21
2022/04/21 04:59:14;;;;;;;6.10;4.10;;;;;;100003.11;;;;107148;1274;64811;-21
2022/04/21 05:01:45;;;;;;;5.40;3.80;;;;;;100001.53;;;;107169;1275;66408;-21
2022/04/21 05:04:14;;;;;;;5.40;3.50;;;;;;99998.77;;;;107349;1268;66125;-21
2022/04/21 05:06:46;;;;;;;5.50;3.60;;;;;;100004.27;;;;107141;1274;64796;-21
2022/04/21 05:09:19;;;;;;;5.80;3.90;;;;;;100004.20;;;;107176;1274;64608;-29
2022/04/21 05:11:51;;;;;;;6.10;3.90;;;;;;100004.65;;;;107140;1275;64754;-29
2022/04/21 05:14:22;;;;;;;5.40;3.60;;;;;;100006.56;;;;107156;1274;64732;-21
2022/04/21 05:16:50;;;;;;;4.80;3.30;;;;;;100006.66;;;;107166;1278;66163;-21
2022/04/21 05:19:22;;;;;;;5.30;3.20;;;;;;100010.98;;;;107122;1277;63617;-21
2022/04/21 05:21:50;;;;;;;6.70;3.90;;;;;;100009.14;;;;107142;1277;64877;-22
2022/04/21 05:24:21;;;;;;;5.30;3.80;;;;;;100008.20;;;;107129;1277;64771;-30
2022/04/21 05:26:52;;;;;;;4.90;3.10;;;;;;100008.73;;;;107120;1276;64786;-28
2022/04/21 05:32:10;;;;;;;5.50;3.60;;;;;;100012.67;;;;107103;1277;64731;-30
2022/04/21 05:34:41;;;;;;;5.50;3.70;;;;;;100016.80;;;;107093;1277;64618;-30
2022/04/21 05:37:09;;;;;;;5.60;4.10;;;;;;100015.27;;;;107115;1276;64847;-29
2022/04/21 05:39:37;;;;;;;6.10;3.70;;;;;;100015.23;;;;107136;1276;64986;-21
2022/04/21 05:42:09;;;;;;;4.80;3.20;;;;;;100018.22;;;;107107;1277;66234;-22
2022/04/21 05:44:37;;;;;;;4.80;3.00;;;;;;100016.42;;;;107079;1277;65102;-22
2022/04/21 05:47:09;;;;;;;5.50;3.40;;;;;;100019.86;;;;107138;1277;64746;-21
2022/04/21 05:49:36;;;;;;;5.80;3.50;;;;;;100022.04;;;;107074;1277;64777;-22
2022/04/21 05:52:07;;;;;;;4.90;3.00;;;;;;100019.48;;;;107155;1277;64789;-26
2022/04/21 05:54:39;;;;;;;5.50;3.50;;;;;;100019.29;;;;107158;1275;66362;-29
2022/04/21 05:57:07;;;;;;;4.80;3.40;;;;;;100020.23;;;;107115;1278;64923;-28
2022/04/21 05:59:37;;;;;;;5.10;3.50;;;;;;100018.61;;;;107142;1277;64935;-29
2022/04/21 06:02:07;;;;;;;5.70;3.50;;;;;;100018.75;;;;107101;1275;65369;-29
2022/04/21 06:04:34;;;;;;;5.20;3.20;;;;;;100019.81;;;;107037;1276;64901;-28
2022/04/21 06:07:02;;;;;;;5.00;3.40;;;;;;100020.42;;;;107120;1277;66173;-29
2022/04/21 06:09:32;;;;;;;5.10;3.30;;;;;;100020.06;;;;107143;1276;64996;-28
2022/04/21 06:12:03;;;;;;;5.50;3.50;;;;;;100019.36;;;;107123;1277;64745;-29
2022/04/21 06:14:34;;;;;;;4.70;3.00;;;;;;100020.46;;;;107062;1278;64672;-21
2022/04/21 06:17:05;;;;;;;5.10;3.20;;;;;;100018.98;;;;107288;1268;64810;-30
2022/04/21 06:19:33;;;;;;;5.20;3.40;;;;;;100014.75;;;;107127;1274;66515;-30
2022/04/21 06:22:00;;;;;;;4.50;2.80;;;;;;100018.17;;;;107145;1275;64901;-29
2022/04/21 06:24:31;;;;;;;7.50;3.10;;;;;;100021.61;;;;107231;1274;64879;-29
2022/04/21 06:27:03;;;;;;;4.60;3.30;;;;;;100024.12;;;;107198;1274;64744;-29
2022/04/21 06:29:31;;;;;;;5.00;2.90;;;;;;100024.65;;;;107236;1275;64834;-29
2022/04/21 06:32:03;;;;;;;4.70;3.00;;;;;;100024.77;;;;107199;1274;64853;-21
2022/04/21 06:34:32;;;;;;;6.00;3.60;;;;;;100024.94;;;;107205;1274;64741;-20
2022/04/21 06:37:00;;;;;;;4.90;3.00;;;;;;100025.84;;;;107175;1274;65856;-29
2022/04/21 06:39:28;;;;;;;5.30;3.20;;;;;;100028.98;;;;107222;1274;64788;-28
2022/04/21 06:41:58;;;;;;;5.10;3.00;;;;;;100029.04;;;;107216;1274;64734;-29
2022/04/21 06:49:59;;;;;;;4.70;2.80;;;;;;100023.54;;;;107190;1274;64709;-21
2022/04/21 06:52:32;;;;;;;5.10;3.30;;;;;;100025.23;;;;107183;1274;64921;-20
2022/04/21 06:54:59;;;;;;;4.80;3.00;;;;;;100024.70;;;;107211;1274;64760;-20
2022/04/21 06:57:29;;;;;;;5.60;3.20;;;;;;100022.87;;;;107231;1274;64940;-21
2022/04/21 06:59:56;;;;;;;4.90;3.10;;;;;;100021.75;;;;107182;1274;64869;-20
2022/04/21 07:02:37;;;;;;;4.30;2.60;;;;;;100025.17;;;;107194;1274;64794;-21
2022/04/21 07:05:10;;;;;;;4.20;2.80;;;;;;100025.19;;;;107216;1273;64856;-21
2022/04/21 07:07:41;;;;;;;4.80;3.10;;;;;;100027.61;;;;107220;1274;64876;-20
2022/04/21 07:10:10;;;;;;;5.10;3.10;;;;;;100032.13;;;;107222;1274;67730;-20
2022/04/21 07:12:40;;;;;;;4.90;2.90;;;;;;100034.63;;;;107203;1274;64741;-29
2022/04/21 07:15:10;;;;;;;4.30;2.60;;;;;;100033.67;;;;107247;1274;64959;-29
2022/04/21 07:17:42;;;;;;;4.50;2.70;;;;;;100037.59;;;;107156;1274;64828;-29
2022/04/21 07:20:11;;;;;;;4.70;2.70;;;;;;100036.08;;;;107216;1274;64647;-29
2022/04/21 07:22:41;;;;;;;4.60;2.80;;;;;;100035.31;;;;107236;1274;65984;-21
2022/04/21 07:25:09;;;;;;;4.20;2.60;;;;;;100034.44;;;;107167;1274;65327;-21
2022/04/21 07:27:39;;;;;;;4.80;2.90;;;;;;100037.32;;;;107154;1274;64821;-29
2022/04/21 07:30:08;;;;;;;5.20;3.00;;;;;;100038.75;;;;107182;1274;64911;-29
2022/04/21 07:32:38;;;;;;;4.10;2.70;;;;;;100041.95;;;;107243;1274;64864;-29
2022/04/21 07:35:09;;;;;;;4.30;2.80;;;;;;100041.07;;;;107204;1274;66140;-29
2022/04/21 07:37:39;;;;;;;4.60;2.90;;;;;;100045.18;;;;107188;1274;65009;-22
2022/04/21 07:40:10;;;;;;;4.80;2.60;;;;;;100048.08;;;;107215;1274;64866;-21
2022/04/21 07:42:39;;;;;;;4.50;2.90;;;;;;100045.95;;;;107192;1274;64760;-29
2022/04/21 07:45:07;;;;;;;4.20;2.50;;;;;;100049.69;;;;107187;1274;64875;-29
2022/04/21 07:47:38;;;;;;;4.20;2.50;;;;;;100044.05;;;;107168;1274;66466;-21
2022/04/21 07:50:06;;;;;;;5.00;3.00;;;;;;100041.83;;;;107172;1274;64887;-22
2022/04/21 07:55:25;;;;;;;4.50;2.50;;;;;;100037.48;;;;107203;1274;64747;-21
2022/04/21 07:57:56;;;;;;;4.60;2.50;;;;;;100043.72;;;;107203;1274;64840;-21
2022/04/21 08:00:24;;;;;;;4.20;2.40;;;;;;100047.29;;;;107214;1274;67126;-24
2022/04/21 08:02:54;;;;;;;4.50;2.80;;;;;;100044.42;;;;107229;1274;64837;-27
2022/04/21 08:05:22;;;;;;;4.80;2.40;;;;;;100044.60;;;;107202;1274;64836;-27
2022/04/21 08:07:50;;;;;;;4.00;2.60;;;;;;100042.52;;;;107156;1274;64744;-29
2022/04/21 08:10:21;;;;;;;4.50;2.60;;;;;;100039.13;;;;107192;1274;64760;-29
2022/04/21 08:12:51;;;;;;;4.40;2.60;;;;;;100039.54;;;;107189;1274;66534;-28
2022/04/21 08:15:26;;;;;;;5.40;2.90;;;;;;100043.58;;;;107118;1274;64734;-35
2022/04/21 08:17:58;;;;;;;4.20;2.30;;;;;;100039.92;;;;107231;1274;64878;-32
2022/04/21 08:20:28;;;;;;;4.10;2.40;;;;;;100036.25;;;;107223;1274;64754;-40
2022/04/21 08:22:56;;;;;;;4.50;2.60;;;;;;100039.27;;;;107187;1274;64853;-47
2022/04/21 08:33:41;;;;;;;4.50;2.40;;;;;;100036.95;;;;107241;1274;64897;-31
2022/04/21 08:36:08;;;;;;;4.10;2.60;;;;;;100033.48;;;;107137;1274;64868;-43
2022/04/21 08:38:36;;;;;;;4.20;2.40;;;;;;100028.14;;;;107228;1274;66141;-47
2022/04/21 08:41:09;;;;;;;4.80;2.90;;;;;;100024.48;;;;107225;1274;64620;-30
2022/04/21 08:43:37;;;;;;;4.30;2.70;;;;;;100021.40;;;;107145;1274;64775;-30
2022/04/21 08:46:04;;;;;;;4.70;2.50;;;;;;100016.40;;;;107220;1274;65199;-31
2022/04/21 08:48:34;;;;;;;4.80;2.70;;;;;;100014.52;;;;107210;1274;64957;-30
2022/04/21 08:51:02;;;;;;;4.40;2.40;;;;;;100008.15;;;;107203;1274;66136;-29
2022/04/21 08:53:30;;;;;;;4.00;2.30;;;;;;100006.77;;;;107197;1272;64858;-29
2022/04/21 08:55:58;;;;;;;4.60;2.50;;;;;;100006.40;;;;107157;1274;64759;-31
2022/04/21 08:58:26;;;;;;;4.20;2.40;;;;;;100004.42;;;;107187;1274;64774;-31
2022/04/21 09:00:56;;;;;;;4.70;2.60;;;;;;100000.84;;;;107187;1274;64731;-37
2022/04/21 09:03:23;;;;;;;4.90;2.60;;;;;;100002.48;;;;107163;1274;66103;-43
2022/04/21 09:05:51;;;;;;;4.10;2.70;;;;;;100003.83;;;;107240;1274;64937;-42
2022/04/21 09:08:23;;;;;;;4.50;2.50;;;;;;100006.57;;;;107230;1274;64840;-40
2022/04/21 09:11:10;;;;;;;6.60;2.50;;;;;;100004.96;;;;107155;1274;64826;-42
2022/04/21 09:13:39;;;;;;;5.90;2.50;;;;;;100003.30;;;;107227;1274;64865;-39
2022/04/21 09:16:09;;;;;;;4.20;2.30;;;;;;100002.41;;;;107237;1274;66216;-38
2022/04/21 09:18:46;;;;;;;4.30;2.60;;;;;;99999.30;;;;107192;1274;64845;-38
2022/04/21 09:21:17;;;;;;;4.00;2.50;;;;;;99995.59;;;;107160;1274;64853;-30
2022/04/21 09:23:47;;;;;;;6.10;2.90;;;;;;99992.92;;;;107130;1274;64802;-31
2022/04/21 09:26:17;;;;;;;5.40;2.70;;;;;;99992.58;;;;107190;1274;64922;-31
2022/04/21 09:28:56;;;;;;;4.70;2.70;;;;;;99991.53;;;;107144;1274;67064;-32
2022/04/21 09:31:28;;;;;;;4.50;2.50;;;;;;99986.87;;;;107233;1274;64834;-40
2022/04/21 09:33:56;;;;;;;5.90;2.80;;;;;;99985.94;;;;107202;1274;64765;-39
2022/04/21 09:36:24;;;;;;;4.40;2.60;;;;;;99985.02;;;;107169;1273;64849;-40
2022/04/21 09:38:59;;;;;;;4.40;2.10;;;;;;99982.46;;;;107258;1274;64992;-40
2022/04/21 09:41:30;;;;;;;5.70;2.70;;;;;;99986.86;;;;107230;1274;66299;-31
2022/04/21 09:46:56;;;;;;;4.90;2.80;;;;;;99984.65;;;;107227;1274;64786;-31
2022/04/21 09:49:39;;;;;;;5.40;3.00;;;;;;99984.12;;;;107200;1274;64844;-31
2022/04/21 09:52:06;;;;;;;4.30;2.70;;;;;;99980.34;;;;107262;1274;64782;-31
2022/04/21 09:54:36;;;;;;;5.90;3.00;;;;;;99979.53;;;;107128;1274;64845;-31
2022/04/21 09:57:05;;;;;;;4.90;2.70;;;;;;99978.87;;;;107242;1274;64878;-37
2022/04/21 09:59:35;;;;;;;4.40;2.50;;;;;;99980.60;;;;107148;1274;64892;-42
2022/04/21 10:02:04;;;;;;;4.90;2.40;;;;;;99979.02;;;;107162;1274;64860;-40
2022/04/21 10:04:31;;;;;;;4.70;2.70;;;;;;99974.22;;;;107199;1274;64923;-37
2022/04/21 10:06:59;;;;;;;5.00;2.50;;;;;;99976.66;;;;107232;1274;66246;-38
2022/04/21 10:09:29;;;;;;;4.50;2.30;;;;;;99972.37;;;;107223;1273;64759;-34
2022/04/21 10:11:58;;;;;;;5.60;2.80;;;;;;99973.35;;;;107232;1274;65307;-34
2022/04/21 10:14:27;;;;;;;5.30;3.10;;;;;;99973.55;;;;107207;1274;64809;-36
2022/04/21 10:16:54;;;;;;;5.20;2.70;;;;;;99977.59;;;;107167;1274;64789;-36
2022/04/21 10:19:22;;;;;;;4.50;2.70;;;;;;99972.86;;;;107222;1273;66424;-35
2022/04/21 10:22:03;;;;;;;4.80;2.40;;;;;;99971.48;;;;107227;1274;64742;-32
2022/04/21 10:24:32;;;;;;;4.60;2.60;;;;;;99974.61;;;;107142;1274;64958;-30
2022/04/21 10:26:59;;;;;;;4.60;2.50;;;;;;99982.23;;;;107227;1273;64764;-31
2022/04/21 10:29:27;;;;;;;4.70;2.90;;;;;;99983.24;;;;107191;1274;64737;-31
2022/04/21 10:32:05;;;;;;;8.60;2.90;;;;;;99983.45;;;;107112;1275;66474;-31
2022/04/21 10:34:44;;;;;;;5.50;2.70;;;;;;99981.05;;;;107219;1274;64974;-31
2022/04/21 10:37:16;;;;;;;4.00;2.30;;;;;;99981.10;;;;107283;1274;65531;-30
2022/04/21 10:40:10;;;;;;;5.30;2.60;;;;;;99977.23;;;;107226;1274;64832;-30
2022/04/21 10:42:52;;;;;;;5.20;2.70;;;;;;99980.67;;;;107217;1274;64865;-38
2022/04/21 10:45:34;;;;;;;4.50;2.80;;;;;;99984.13;;;;107265;1274;65919;-32
2022/04/21 10:48:14;;;;;;;4.70;2.60;;;;;;99980.58;;;;107239;1274;64834;-30
2022/04/21 10:50:45;;;;;;;4.30;2.70;;;;;;99979.98;;;;107263;1274;64809;-48
2022/04/21 10:59:08;;;;;;;4.40;2.40;;;;;;99985.05;;;;107216;1274;66117;-32
2022/04/21 11:01:36;;;;;;;6.30;2.90;;;;;;99987.63;;;;107185;1274;64874;-38
2022/04/21 11:04:22;;;;;;;5.10;2.90;;;;;;99988.02;;;;107207;1274;64751;-38
2022/04/21 11:06:54;;;;;;;4.70;2.90;;;;;;99984.63;;;;107227;1273;64703;-32
2022/04/21 11:09:35;;;;;;;4.20;2.80;;;;;;99981.80;;;;107266;1274;64744;-32
2022/04/21 11:12:06;;;;;;;4.70;3.00;;;;;;99987.41;;;;107169;1274;67661;-32
2022/04/21 11:14:36;;;;;;;4.50;2.70;;;;;;99986.02;;;;107149;1274;64843;-32
2022/04/21 11:17:05;;;;;;;4.70;2.60;;;;;;99984.54;;;;107179;1274;64780;-35
2022/04/21 11:19:51;;;;;;;5.20;2.90;;;;;;99986.49;;;;107232;1274;64882;-32
2022/04/21 11:22:38;;;;;;;4.80;2.80;;;;;;99990.22;;;;107149;1274;64782;-33
2022/04/21 11:25:07;;;;;;;5.60;2.90;;;;;;99990.44;;;;107148;1274;67603;-32
2022/04/21 11:27:43;;;;;;;5.50;2.80;;;;;;99989.77;;;;107283;1274;65141;-38
2022/04/21 11:30:13;;;;;;;5.10;2.90;;;;;;99987.94;;;;107239;1274;64884;-39
2022/04/21 11:32:52;;;;;;;4.70;3.00;;;;;;99983.93;;;;107248;1274;64961;-37
2022/04/21 11:35:25;;;;;;;5.10;2.80;;;;;;99982.48;;;;107191;1274;64741;-36
2022/04/21 11:37:54;;;;;;;5.20;3.00;;;;;;99980.36;;;;107231;1274;67239;-32
2022/04/21 11:40:35;;;;;;;4.40;2.80;;;;;;99978.34;;;;107216;1274;64849;-34
2022/04/21 11:43:17;;;;;;;4.90;2.90;;;;;;99977.39;;;;107169;1274;64763;-32
2022/04/21 11:46:05;;;;;;;5.80;2.80;;;;;;99977.05;;;;107273;1273;64868;-32
2022/04/21 11:48:38;;;;;;;5.10;3.20;;;;;;99977.58;;;;107175;1274;64893;-32
2022/04/21 11:51:05;;;;;;;4.50;2.80;;;;;;99976.13;;;;107249;1274;66590;-38
2022/04/21 11:53:36;;;;;;;4.70;3.00;;;;;;99972.45;;;;107228;1273;64764;-38
2022/04/21 11:56:04;;;;;;;4.60;2.60;;;;;;99972.71;;;;107251;1274;64741;-32
2022/04/21 11:58:35;;;;;;;4.50;2.80;;;;;;99971.44;;;;107242;1274;64735;-32
2022/04/21 12:06:57;;;;;;;5.20;3.20;;;;;;99975.27;;;;107208;1274;64829;-38
2022/04/21 12:09:38;;;;;;;5.50;3.00;;;;;;99977.90;;;;107235;1274;64775;-35
2022/04/21 12:12:08;;;;;;;5.00;3.20;;;;;;99980.63;;;;107122;1274;64753;-36
2022/04/21 12:14:39;;;;;;;4.50;2.90;;;;;;99982.14;;;;107009;1274;334814;-42
2022/04/21 12:17:07;;;;;;;4.70;3.10;;;;;;99983.58;;;;107239;1274;66103;-30
2022/04/21 12:19:44;;;;;;;4.70;3.00;;;;;;99974.77;;;;107183;1274;64871;-30
2022/04/21 12:22:29;;;;;;;5.70;2.70;;;;;;99971.33;;;;107146;1274;64841;-38
2022/04/21 12:24:57;;;;;;;5.00;3.10;;;;;;99973.30;;;;107227;1274;64884;-39
2022/04/21 12:27:34;;;;;;;4.40;2.80;;;;;;99974.20;;;;107250;1274;65164;-32
2022/04/21 12:30:07;;;;;;;4.50;3.00;;;;;;99973.20;;;;107130;1274;66143;-31
2022/04/21 12:32:39;;;;;;;4.70;2.70;;;;;;99969.55;;;;107236;1274;65160;-33
2022/04/21 12:35:12;;;;;;;5.10;3.20;;;;;;99971.42;;;;107182;1274;65051;-34
2022/04/21 12:37:50;;;;;;;5.70;2.90;;;;;;99971.48;;;;107224;1274;64725;-31
2022/04/21 12:40:18;;;;;;;5.40;2.90;;;;;;99971.55;;;;107148;1274;64855;-32
2022/04/21 12:42:50;;;;;;;5.10;3.00;;;;;;99968.25;;;;107195;1273;65244;-43
2022/04/21 12:45:20;;;;;;;5.20;2.80;;;;;;99970.46;;;;107040;1274;64887;-34
2022/04/21 12:47:50;;;;;;;6.50;3.10;;;;;;99969.70;;;;107165;1274;64738;-32
2022/04/21 12:50:22;;;;;;;4.60;3.00;;;;;;99968.98;;;;107202;1274;64756;-35
2022/04/21 12:52:53;;;;;;;6.40;3.20;;;;;;99968.66;;;;107139;1274;64856;-41
2022/04/21 12:55:21;;;;;;;5.40;3.10;;;;;;99971.97;;;;107135;1274;67113;-54
2022/04/21 12:58:06;;;;;;;5.80;3.10;;;;;;99975.55;;;;107188;1274;64866;-36
2022/04/21 13:00:45;;;;;;;4.90;2.90;;;;;;99979.41;;;;107220;1274;64908;-37
2022/04/21 13:03:16;;;;;;;6.20;3.50;;;;;;99981.59;;;;107145;1274;64798;-39
2022/04/21 13:05:50;;;;;;;4.80;3.10;;;;;;99980.72;;;;107201;1274;64692;-39
2022/04/21 13:08:19;;;;;;;5.60;2.90;;;;;;99981.23;;;;107211;1274;67302;-38
2022/04/21 13:10:47;;;;;;;5.00;2.90;;;;;;99980.83;;;;107180;1274;64779;-40
2022/04/21 13:13:14;;;;;;;5.40;3.20;;;;;;99982.27;;;;107215;1274;65082;-36
2022/04/21 13:15:42;;;;;;;4.20;2.80;;;;;;99982.51;;;;107200;1274;64981;-36
2022/04/21 13:18:09;;;;;;;5.00;3.00;;;;;;99979.80;;;;107197;1274;64839;-38
2022/04/21 13:23:25;;;;;;;5.20;3.40;;;;;;99984.19;;;;107147;1274;64754;-37
2022/04/21 13:25:56;;;;;;;5.10;3.20;;;;;;99982.06;;;;107196;1274;64770;-37
2022/04/21 13:28:23;;;;;;;4.30;2.80;;;;;;99984.98;;;;107145;1274;64799;-38
2022/04/21 13:33:21;;;;;;;5.40;2.90;;;;;;99987.41;;;;107206;1274;64140;-37
2022/04/21 13:33:38;;;;;;;5.80;3.40;;;;;;99988.58;;;;107128;1274;67287;-37
2022/04/21 13:36:06;;;;;;;5.30;3.00;;;;;;99991.39;;;;107196;1274;64780;-37
2022/04/21 13:38:37;;;;;;;5.90;3.30;;;;;;99991.64;;;;107206;1274;64849;-37
2022/04/21 13:41:04;;;;;;;5.60;3.50;;;;;;99991.17;;;;107075;1274;64613;-38
2022/04/21 13:43:31;;;;;;;5.90;3.30;;;;;;99987.46;;;;107217;1274;64831;-42
2022/04/21 13:46:00;;;;;;;5.20;2.90;;;;;;99995.41;;;;107200;1274;66464;-40
2022/04/21 13:48:27;;;;;;;4.90;3.00;;;;;;99994.55;;;;107105;1274;64774;-34
2022/04/21 13:50:54;;;;;;;5.10;3.10;;;;;;99996.48;;;;107182;1274;64593;-32
2022/04/21 13:53:22;;;;;;;5.60;3.50;;;;;;99999.17;;;;107101;1274;64945;-31
2022/04/21 13:55:49;;;;;;;4.90;3.00;;;;;;99998.32;;;;107193;1273;64799;-31
2022/04/21 13:58:17;;;;;;;5.10;3.10;;;;;;99996.71;;;;107173;1274;66438;-32
2022/04/21 14:00:45;;;;;;;5.20;2.90;;;;;;99994.27;;;;107119;1274;64876;-38
2022/04/21 14:03:13;;;;;;;5.20;3.10;;;;;;99995.50;;;;107178;1274;64760;-37
2022/04/21 14:05:41;;;;;;;4.90;3.00;;;;;;99998.90;;;;107178;1273;64974;-31